Warrensburg, MO

4:27 AM CST on December 19, 2014 (GMT -0600)
Downtown | Change Station
CLOSE
Current Station
Personal Weather Station
Location: Warrensburg, MO
Elevation: 856 ft
Nearby Weather Stations

Elev 856 ft 38.76 °N, 93.74 °W | Updated 12 minutes ago

Fog
Fog
32.2 °F
Feels Like 29 °F
N
3.8
Wind Variable Wind from East

Today
High -- | Low -- °F
--% Chance of Precip.
Yesterday
High -- | Low -- °F
Precip. -- in
7:28 AM 4:55 PM
Waning Crescent, 8% visible
Pressure 30.25 in
Visibility 0.5 miles
Clouds Overcast 200 ft
Windchill 29 °F
Dew Point 31 °F
Humidity 95%
Rainfall 0.00 in
Snow Depth Not available.
UV 0 out of 12
Pollen .10 out of 12
Air Quality Not available.
Flu Activity Not available.
METAR KRCM 191015Z AUTO 00000KT 1/2SM FG OVC002 00/00 A3025 RMK AO2

More Conditions Fewer Conditions

Pressure 30.25 in
Visibility 0.5 miles
Clouds Overcast 200 ft
Windchill 29 °F
Dew Point 31 °F
Humidity 95%
Rainfall 0.00 in
Snow Depth Not available.
UV 0 out of 12
Pollen .10 out of 12
Air Quality Not available.
Flu Activity Not available.
METAR KRCM 191015Z AUTO 00000KT 1/2SM FG OVC002 00/00 A3025 RMK AO2

More Conditions Fewer Conditions

10-Day Weather Forecast

Almanac

Astronomy

Dec. 19, 2014 Rise Set
Actual Time
Civil Twilight
Nautical Twilight
Astronomical Twilight
Moon
Length of Visible Light
Length of Day
Tomorrow will be .
, % of the Moon is Illuminated

Today's Extremes

State Highs State Lows

Community

WunderPhotos

Upload Photos

1,778,966 photos uploaded!

WunderBlogs® & News

Nearby

Air Quality

  Air Quality AQ Index Pollutant
Not available.

Snow Depth

Station Depth Elevation

Earthquake Activity

City Distance Mag. Time & Date
Minimum magnitude displayed is 2.5.

Coastal Water Temperatures

Place Temperature

Nearby Weather Stations